Terminal Aerodrome Forecast
Issued by NWS Des Moines, IA

Home | Current Version | Previous Version | Text Only | Print | Product List | Glossary On
Versions: 1 2 3 4 5 6 7 8 9 10 11 12 13 14 15 16 17 18 19 20 21 22 23 24 25 26
000
FTUS43 KDMX 300539
TAFDSM
TAF
KDSM 300539Z 3006/0106 08008KT P6SM SKC
     FM301000 12010KT P6SM SCT025 BKN150
      TEMPO 3010/3013 5SM BR
     FM010000 12011KT P6SM VCSH BKN080=

USA.gov is the U.S. government's official web portal to all federal, state and local government web resources and services.